createdAt,value
2023-09-14T00:06:38.998Z,21.40
2023-09-14T00:17:07.966Z,21.42
2023-09-14T00:27:35.675Z,21.36
2023-09-14T00:38:03.960Z,21.33
2023-09-14T00:48:34.070Z,21.40
2023-09-14T00:59:04.106Z,21.42
2023-09-14T01:09:32.459Z,21.45
2023-09-14T01:20:09.063Z,21.50
2023-09-14T01:30:38.649Z,21.55
2023-09-14T01:41:07.131Z,21.52
2023-09-14T01:51:35.004Z,21.38
2023-09-14T02:02:03.038Z,21.27
2023-09-14T02:12:30.647Z,21.29
2023-09-14T02:22:58.597Z,21.39
2023-09-14T02:33:26.322Z,21.44
2023-09-14T02:43:54.274Z,21.46
2023-09-14T02:54:22.388Z,21.46
2023-09-14T03:04:49.930Z,21.41
2023-09-14T03:15:17.680Z,21.38
2023-09-14T03:25:46.382Z,21.29
2023-09-14T03:36:14.083Z,21.28
2023-09-14T03:46:42.063Z,21.19
2023-09-14T03:57:15.969Z,21.08
2023-09-14T04:07:43.696Z,21.07
2023-09-14T04:18:11.312Z,21.09
2023-09-14T04:28:39.099Z,21.11
2023-09-14T04:39:07.351Z,21.10
2023-09-14T04:49:35.011Z,21.05
2023-09-14T05:00:02.657Z,21.03
2023-09-14T05:10:30.424Z,20.85
2023-09-14T05:20:58.100Z,20.70
2023-09-14T05:31:25.896Z,20.38
2023-09-14T05:41:53.638Z,20.23
2023-09-14T05:52:21.402Z,19.76
2023-09-14T06:02:49.450Z,19.49
2023-09-14T06:13:19.664Z,19.46
2023-09-14T06:23:55.999Z,19.41
2023-09-14T06:34:23.943Z,19.54
2023-09-14T06:44:53.766Z,19.62
2023-09-14T06:55:22.008Z,19.62
2023-09-14T07:05:49.791Z,19.60
2023-09-14T07:16:17.779Z,19.58
2023-09-14T07:26:45.992Z,19.62
2023-09-14T07:37:13.713Z,19.64
2023-09-14T07:47:41.817Z,19.73
2023-09-14T07:58:09.839Z,19.80
2023-09-14T08:08:38.402Z,19.79
2023-09-14T08:19:06.453Z,19.80
2023-09-14T08:29:34.228Z,20.04
2023-09-14T08:40:02.292Z,20.08
2023-09-14T08:50:32.227Z,19.99
2023-09-14T09:01:00.743Z,19.80
2023-09-14T09:11:30.846Z,19.71
2023-09-14T09:21:59.701Z,20.09
2023-09-14T09:32:27.513Z,20.29
2023-09-14T09:42:59.128Z,20.35
2023-09-14T09:53:29.330Z,20.42
2023-09-14T10:03:57.528Z,20.57
2023-09-14T10:14:30.220Z,20.82
2023-09-14T10:24:59.831Z,21.05
2023-09-14T10:35:29.913Z,21.24
2023-09-14T10:46:02.200Z,21.41
2023-09-14T10:56:32.848Z,21.42
2023-09-14T11:07:02.887Z,21.50
2023-09-14T11:17:42.923Z,21.35
2023-09-14T11:28:22.117Z,21.10
2023-09-14T11:38:52.859Z,21.00
2023-09-14T11:59:57.124Z,20.96
2023-09-14T12:10:26.324Z,20.87
2023-09-14T12:20:55.204Z,20.79
2023-09-14T12:31:24.139Z,20.68
2023-09-14T12:41:53.832Z,20.56
2023-09-14T12:52:25.057Z,20.62
2023-09-14T13:02:54.254Z,20.66
2023-09-14T13:13:22.721Z,20.56
2023-09-14T13:23:51.931Z,20.41
2023-09-14T13:34:19.810Z,20.28
2023-09-14T13:44:47.935Z,20.18
2023-09-14T13:55:17.169Z,20.02
2023-09-14T14:05:45.327Z,19.96
2023-09-14T14:16:13.377Z,19.94
2023-09-14T14:26:44.929Z,20.04
2023-09-14T14:37:13.998Z,20.09
2023-09-14T14:47:41.689Z,20.18
2023-09-14T14:58:09.963Z,20.32
2023-09-14T15:08:37.949Z,20.40
2023-09-14T15:19:05.784Z,20.47
2023-09-14T15:29:34.694Z,20.48
2023-09-14T15:40:04.006Z,20.35
2023-09-14T15:50:32.944Z,20.23
2023-09-14T16:01:01.441Z,20.03
2023-09-14T16:11:29.402Z,19.90
2023-09-14T16:21:57.335Z,19.93
2023-09-14T16:32:25.860Z,20.01
2023-09-14T16:42:53.778Z,20.08
2023-09-14T16:53:22.830Z,20.16
2023-09-14T17:03:51.574Z,20.15
2023-09-14T17:14:20.683Z,20.11
2023-09-14T17:24:48.658Z,20.08
2023-09-14T17:35:18.034Z,19.84
2023-09-14T17:45:45.979Z,19.64
2023-09-14T17:56:13.703Z,19.50
2023-09-14T18:06:41.401Z,19.50
2023-09-14T18:17:09.776Z,19.51
2023-09-14T18:27:37.828Z,19.44
2023-09-14T18:38:06.451Z,19.28
2023-09-14T18:48:34.236Z,19.11
2023-09-14T19:09:33.659Z,19.12
2023-09-14T19:20:05.816Z,19.18
2023-09-14T19:30:35.811Z,19.22
2023-09-14T19:41:03.953Z,19.21
2023-09-14T19:51:32.349Z,19.11
2023-09-14T20:02:00.150Z,19.15
2023-09-14T20:12:28.515Z,19.11
2023-09-14T20:22:56.255Z,18.97
2023-09-14T20:33:23.847Z,18.98
2023-09-14T20:43:51.577Z,19.03
2023-09-14T20:54:20.958Z,19.12
2023-09-14T21:04:48.792Z,19.14
2023-09-14T21:15:16.721Z,19.15
2023-09-14T21:25:44.296Z,19.09
2023-09-14T21:36:12.283Z,19.19
2023-09-14T21:46:39.839Z,19.26
2023-09-14T21:57:09.075Z,19.34
2023-09-14T22:07:36.768Z,19.32
2023-09-14T22:18:06.330Z,19.11
2023-09-14T22:28:34.206Z,18.90
2023-09-14T22:39:01.901Z,18.83
2023-09-14T22:49:29.510Z,18.82
2023-09-14T22:59:57.714Z,18.88
2023-09-14T23:10:25.856Z,19.01
2023-09-14T23:20:54.207Z,18.96
2023-09-14T23:31:23.576Z,18.84
2023-09-14T23:41:51.558Z,18.76
2023-09-14T23:52:22.328Z,18.63
